WetterOnline ( https://www.wetteronline.de )

Wetter aktuell Kirchhain

Aktuelles Wetter: Neu-Ulrichstein (350m)

6-stündlich | Neueste Meldungen
Ortszeit Temperatur Wetter
Do, 28.10. 20:00 6.4° C bedeckt
Do, 28.10. 14:00 9.0° C wolkenlos
Do, 28.10. 8:00 5.2° C Nebel
Do, 28.10. 2:00 8.0° C wolkig
Mi, 27.10. 20:00 10.0° C wolkig
Mi, 27.10. 14:00 11.7° C bewölkt
Mi, 27.10. 8:00 7.4° C bedeckt
Mi, 27.10. 2:00 7.2° C wolkenlos
Ortszeit Temperatur Wetter
Do, 28.10. 23:00 7.2° C bedeckt
Do, 28.10. 22:50 7.2° C bedeckt
Do, 28.10. 22:40 7.1° C bedeckt
Do, 28.10. 22:30 7.0° C bedeckt
Do, 28.10. 22:20 7.0° C bedeckt
Do, 28.10. 22:10 6.9° C bedeckt
Do, 28.10. 22:00 6.8° C bedeckt
Do, 28.10. 21:30 6.8° C bedeckt
Do, 28.10. 21:00 6.6° C bedeckt
Do, 28.10. 20:30 6.5° C bedeckt
Do, 28.10. 20:00 6.4° C bedeckt
Ortszeit Relative Feuchte Sichtweite
Do, 28.10. 20:00 99% -
Do, 28.10. 14:00 85% 14 km
Do, 28.10. 8:00 100% 0.7 km
Do, 28.10. 2:00 100% 10 km
Mi, 27.10. 20:00 92% 29 km
Mi, 27.10. 14:00 85% 28 km
Mi, 27.10. 8:00 99% 3.8 km
Mi, 27.10. 2:00 92% 30 km
Ortszeit Relative Feuchte Sichtweite
Do, 28.10. 23:00 98% 3.4 km
Do, 28.10. 22:50 98% -
Do, 28.10. 22:40 98% -
Do, 28.10. 22:30 99% 2.8 km
Do, 28.10. 22:20 99% -
Do, 28.10. 22:10 99% -
Do, 28.10. 22:00 99% 3.3 km
Do, 28.10. 21:30 99% 3.0 km
Do, 28.10. 21:00 99% 1.9 km
Do, 28.10. 20:30 99% 1.8 km
Do, 28.10. 20:00 99% 1.8 km
Ortszeit Niederschlagsmenge Niederschlagsart
Do, 28.10. 20:00 0.0 l/m2 in 12 Std. -
Do, 28.10. 14:00 0.0 l/m2 in 6 Std. -
Do, 28.10. 8:00 0.1 l/m2 in 12 Std. -
Do, 28.10. 2:00 0.0 l/m2 in 6 Std. -
Mi, 27.10. 20:00 0.0 l/m2 in 12 Std. -
Mi, 27.10. 14:00 0.0 l/m2 in 6 Std. -
Mi, 27.10. 8:00 0.0 l/m2 in 12 Std. -
Mi, 27.10. 2:00 0.0 l/m2 in 6 Std. -
Ortszeit Niederschlagsmenge Niederschlagsart
Do, 28.10. 23:00 0.0 l/m2 in 1 Std. -
Do, 28.10. 22:50 keine Meldung -
Do, 28.10. 22:40 keine Meldung -
Do, 28.10. 22:30 0.0 l/m2 in 1 Std. -
Do, 28.10. 22:20 keine Meldung -
Do, 28.10. 22:10 keine Meldung -
Do, 28.10. 22:00 0.0 l/m2 in 1 Std. -
Do, 28.10. 21:30 0.0 l/m2 in 1 Std. -
Do, 28.10. 21:00 0.0 l/m2 in 1 Std. -
Do, 28.10. 20:30 0.0 l/m2 in 1 Std. -
Do, 28.10. 20:00 0.0 l/m2 in 1 Std. -
Ortszeit Stärke Spitze Richtung
km/h Bft. km/h Grad Sektor
Do, 28.10. 20:00 13 3 31 160° S
Do, 28.10. 14:00 15 3 22 200° S
Do, 28.10. 8:00 4 1 7 70° O
Do, 28.10. 2:00 4 1 18 180° S
Mi, 27.10. 20:00 14 3 29 160° S
Mi, 27.10. 14:00 17 3 30 180° S
Mi, 27.10. 8:00 22 4 32 180° S
Mi, 27.10. 2:00 15 3 28 210° SW
Ortszeit Stärke Spitze Richtung
km/h Bft. km/h Grad Sektor
Do, 28.10. 23:00 11 2 22 160° S
Do, 28.10. 22:50 11 2 - 160° S
Do, 28.10. 22:40 13 3 - 160° S
Do, 28.10. 22:30 14 3 22 160° S
Do, 28.10. 22:20 14 3 - 160° S
Do, 28.10. 22:10 14 3 - 160° S
Do, 28.10. 22:00 15 3 20 160° S
Do, 28.10. 21:30 14 3 22 160° S
Do, 28.10. 21:00 11 2 22 160° S
Do, 28.10. 20:30 15 3 20 160° S
Do, 28.10. 20:00 13 3 22 160° S
Ortszeit Untergrenze Bedeckung Gattung
total tief tief mittel hoch
Do, 28.10. 20:00 60 m 8/8 8/8 - - -
Do, 28.10. 14:00 - 0/8 0/8 - - -
Do, 28.10. 8:00 - 0/8 0/8 - - -
Do, 28.10. 2:00 9000 m 8/8 0/8 - - -
Mi, 27.10. 20:00 9000 m 8/8 0/8 - - -
Mi, 27.10. 14:00 870 m 7/8 7/8 - - -
Mi, 27.10. 8:00 30 m 8/8 8/8 - - -
Mi, 27.10. 2:00 - 0/8 0/8 - - -
Ortszeit Bedeckungsgrad in Achtel und Wolkenuntergrenze
Do, 28.10. 23:00 8(90m)
Do, 28.10. 22:50 8(90m)
Do, 28.10. 22:40 8(90m)
Do, 28.10. 22:30 8(60m)
Do, 28.10. 22:20 8(60m)
Do, 28.10. 22:10 8(90m)
Do, 28.10. 22:00 8(90m)
Do, 28.10. 21:30 8(60m)
Do, 28.10. 21:00 8(60m)
Do, 28.10. 20:30 8(60m)
Do, 28.10. 20:00 8(60m)
Ortszeit Luftdruck NN (hPa) Tendenz (hPa in 3 Std.)
Do, 28.10. 20:00 1019 - 0,2
Do, 28.10. 14:00 1020 - 1,0
Do, 28.10. 8:00 1022 - 0,9
Do, 28.10. 2:00 1024 - 0,8
Mi, 27.10. 20:00 1025 - 0,4
Mi, 27.10. 14:00 1026 - 0,5
Mi, 27.10. 8:00 1026 + 0,5
Mi, 27.10. 2:00 1025 + 0,5
Ortszeit Luftdruck NN (hPa) Tendenz (hPa in 3 Std.)
Do, 28.10. 23:00 1018 - 1,1
Do, 28.10. 22:50 1018 keine Meldung
Do, 28.10. 22:40 1018 keine Meldung
Do, 28.10. 22:30 1018 - 0,8
Do, 28.10. 22:20 1018 keine Meldung
Do, 28.10. 22:10 1018 keine Meldung
Do, 28.10. 22:00 1018 - 0,8
Do, 28.10. 21:30 1019 - 0,4
Do, 28.10. 21:00 1019 - 0,4
Do, 28.10. 20:30 1019 - 0,3
Do, 28.10. 20:00 1019 - 0,2
Ortszeit Schneehöhe (cm)
Do, 28.10. 20:00 0
Do, 28.10. 14:00 0
Do, 28.10. 8:00 0
Do, 28.10. 2:00 0
Mi, 27.10. 20:00 0
Mi, 27.10. 14:00 0
Mi, 27.10. 8:00 0
Mi, 27.10. 2:00 0
Ortszeit Schneehöhe (cm)
Do, 28.10. 23:00 0
Do, 28.10. 22:50 0
Do, 28.10. 22:40 0
Do, 28.10. 22:30 0
Do, 28.10. 22:20 0
Do, 28.10. 22:10 0
Do, 28.10. 22:00 0
Do, 28.10. 21:30 0
Do, 28.10. 21:00 0
Do, 28.10. 20:30 0
Do, 28.10. 20:00 0
Link zu dieser Seite / Seite empfehlen

Das Wetter in ...